sensor_id;sensor_type;location;lat;lon;timestamp;temperature;humidity
2024;DHT22;1016;48.770;9.154;2023-09-18T00:01:49;22.70;99.90
2024;DHT22;1016;48.770;9.154;2023-09-18T00:04:14;22.70;99.90
2024;DHT22;1016;48.770;9.154;2023-09-18T00:06:42;22.70;99.90
2024;DHT22;1016;48.770;9.154;2023-09-18T00:09:07;22.90;99.90
2024;DHT22;1016;48.770;9.154;2023-09-18T00:11:37;22.70;99.90
2024;DHT22;1016;48.770;9.154;2023-09-18T00:14:03;22.70;99.90
2024;DHT22;1016;48.770;9.154;2023-09-18T00:16:29;22.70;99.90
2024;DHT22;1016;48.770;9.154;2023-09-18T00:18:54;22.70;99.90
2024;DHT22;1016;48.770;9.154;2023-09-18T00:21:20;22.70;99.90
2024;DHT22;1016;48.770;9.154;2023-09-18T00:23:45;22.70;99.90
2024;DHT22;1016;48.770;9.154;2023-09-18T00:26:12;22.70;99.90
2024;DHT22;1016;48.770;9.154;2023-09-18T00:28:37;22.70;99.90
2024;DHT22;1016;48.770;9.154;2023-09-18T00:31:04;22.70;99.90
2024;DHT22;1016;48.770;9.154;2023-09-18T00:33:29;22.70;99.90
2024;DHT22;1016;48.770;9.154;2023-09-18T00:35:55;22.90;99.90
2024;DHT22;1016;48.770;9.154;2023-09-18T00:38:20;22.70;99.90
2024;DHT22;1016;48.770;9.154;2023-09-18T00:40:46;22.90;99.90
2024;DHT22;1016;48.770;9.154;2023-09-18T00:43:12;22.70;99.90
2024;DHT22;1016;48.770;9.154;2023-09-18T00:45:44;22.90;99.90
2024;DHT22;1016;48.770;9.154;2023-09-18T00:48:10;22.70;99.90
2024;DHT22;1016;48.770;9.154;2023-09-18T00:50:37;22.70;99.90
2024;DHT22;1016;48.770;9.154;2023-09-18T00:53:02;22.70;99.90
2024;DHT22;1016;48.770;9.154;2023-09-18T00:55:30;22.70;99.90
2024;DHT22;1016;48.770;9.154;2023-09-18T00:57:57;22.70;99.90
2024;DHT22;1016;48.770;9.154;2023-09-18T01:00:23;22.70;99.90
2024;DHT22;1016;48.770;9.154;2023-09-18T01:02:49;22.80;99.90
2024;DHT22;1016;48.770;9.154;2023-09-18T01:05:15;22.70;99.90
2024;DHT22;1016;48.770;9.154;2023-09-18T01:07:42;22.70;99.90
2024;DHT22;1016;48.770;9.154;2023-09-18T01:10:08;22.70;99.90
2024;DHT22;1016;48.770;9.154;2023-09-18T01:15:11;22.70;99.90
2024;DHT22;1016;48.770;9.154;2023-09-18T01:17:38;22.70;99.90
2024;DHT22;1016;48.770;9.154;2023-09-18T01:20:08;22.70;99.90
2024;DHT22;1016;48.770;9.154;2023-09-18T01:22:34;22.70;99.90
2024;DHT22;1016;48.770;9.154;2023-09-18T01:24:59;22.70;99.90
2024;DHT22;1016;48.770;9.154;2023-09-18T01:27:25;22.90;99.90
2024;DHT22;1016;48.770;9.154;2023-09-18T01:29:50;22.80;99.90
2024;DHT22;1016;48.770;9.154;2023-09-18T01:32:16;22.70;99.90
2024;DHT22;1016;48.770;9.154;2023-09-18T01:34:47;22.80;99.90
2024;DHT22;1016;48.770;9.154;2023-09-18T01:37:16;22.80;99.90
2024;DHT22;1016;48.770;9.154;2023-09-18T01:39:42;22.80;99.90
2024;DHT22;1016;48.770;9.154;2023-09-18T01:42:11;22.80;99.90
2024;DHT22;1016;48.770;9.154;2023-09-18T01:44:37;22.90;99.90
2024;DHT22;1016;48.770;9.154;2023-09-18T01:47:11;22.80;99.90
2024;DHT22;1016;48.770;9.154;2023-09-18T01:49:38;22.80;99.90
2024;DHT22;1016;48.770;9.154;2023-09-18T01:52:05;22.90;99.90
2024;DHT22;1016;48.770;9.154;2023-09-18T01:54:32;22.70;99.90
2024;DHT22;1016;48.770;9.154;2023-09-18T01:56:58;22.90;99.90
2024;DHT22;1016;48.770;9.154;2023-09-18T01:59:24;22.90;99.90
2024;DHT22;1016;48.770;9.154;2023-09-18T02:01:51;22.90;99.90
2024;DHT22;1016;48.770;9.154;2023-09-18T02:04:17;22.90;99.90
2024;DHT22;1016;48.770;9.154;2023-09-18T02:06:44;23.00;99.90
2024;DHT22;1016;48.770;9.154;2023-09-18T02:09:10;22.90;99.90
2024;DHT22;1016;48.770;9.154;2023-09-18T02:11:41;22.90;99.90
2024;DHT22;1016;48.770;9.154;2023-09-18T02:14:07;22.90;99.90
2024;DHT22;1016;48.770;9.154;2023-09-18T02:16:34;22.90;99.90
2024;DHT22;1016;48.770;9.154;2023-09-18T02:19:00;23.00;99.90
2024;DHT22;1016;48.770;9.154;2023-09-18T02:21:26;23.00;99.90
2024;DHT22;1016;48.770;9.154;2023-09-18T02:23:52;22.90;99.90
2024;DHT22;1016;48.770;9.154;2023-09-18T02:26:18;23.00;99.90
2024;DHT22;1016;48.770;9.154;2023-09-18T02:28:44;22.90;99.90
2024;DHT22;1016;48.770;9.154;2023-09-18T02:31:10;23.00;99.90
2024;DHT22;1016;48.770;9.154;2023-09-18T02:33:37;22.90;99.90
2024;DHT22;1016;48.770;9.154;2023-09-18T02:36:03;22.90;99.90
2024;DHT22;1016;48.770;9.154;2023-09-18T02:38:29;22.90;99.90
2024;DHT22;1016;48.770;9.154;2023-09-18T02:40:55;22.90;99.90
2024;DHT22;1016;48.770;9.154;2023-09-18T02:43:22;23.00;99.90
2024;DHT22;1016;48.770;9.154;2023-09-18T02:45:48;22.90;99.90
2024;DHT22;1016;48.770;9.154;2023-09-18T02:48:13;22.90;99.90
2024;DHT22;1016;48.770;9.154;2023-09-18T02:50:39;23.00;99.90
2024;DHT22;1016;48.770;9.154;2023-09-18T02:53:06;22.80;99.90
2024;DHT22;1016;48.770;9.154;2023-09-18T02:55:32;22.90;99.90
2024;DHT22;1016;48.770;9.154;2023-09-18T02:57:57;22.90;99.90
2024;DHT22;1016;48.770;9.154;2023-09-18T03:00:24;22.80;99.90
2024;DHT22;1016;48.770;9.154;2023-09-18T03:02:49;22.80;99.90
2024;DHT22;1016;48.770;9.154;2023-09-18T03:05:15;22.90;99.90
2024;DHT22;1016;48.770;9.154;2023-09-18T03:07:41;22.80;99.90
2024;DHT22;1016;48.770;9.154;2023-09-18T03:10:07;23.00;99.90
2024;DHT22;1016;48.770;9.154;2023-09-18T03:12:32;22.80;99.90
2024;DHT22;1016;48.770;9.154;2023-09-18T03:14:59;22.80;99.90
2024;DHT22;1016;48.770;9.154;2023-09-18T03:17:24;22.80;99.90
2024;DHT22;1016;48.770;9.154;2023-09-18T03:19:50;22.80;99.90
2024;DHT22;1016;48.770;9.154;2023-09-18T03:22:16;22.80;99.90
2024;DHT22;1016;48.770;9.154;2023-09-18T03:24:41;22.80;99.90
2024;DHT22;1016;48.770;9.154;2023-09-18T03:27:07;22.70;99.90
2024;DHT22;1016;48.770;9.154;2023-09-18T03:29:32;22.70;99.90
2024;DHT22;1016;48.770;9.154;2023-09-18T03:31:58;22.80;99.90
2024;DHT22;1016;48.770;9.154;2023-09-18T03:34:25;22.90;99.90
2024;DHT22;1016;48.770;9.154;2023-09-18T03:36:53;22.80;99.90
2024;DHT22;1016;48.770;9.154;2023-09-18T03:39:19;23.00;99.90
2024;DHT22;1016;48.770;9.154;2023-09-18T03:41:45;22.80;99.90
2024;DHT22;1016;48.770;9.154;2023-09-18T03:44:11;22.80;99.90
2024;DHT22;1016;48.770;9.154;2023-09-18T03:46:37;22.80;99.90
2024;DHT22;1016;48.770;9.154;2023-09-18T03:49:02;22.80;99.90
2024;DHT22;1016;48.770;9.154;2023-09-18T03:51:28;22.70;99.90
2024;DHT22;1016;48.770;9.154;2023-09-18T03:53:55;22.70;99.90
2024;DHT22;1016;48.770;9.154;2023-09-18T03:56:21;22.60;99.90
2024;DHT22;1016;48.770;9.154;2023-09-18T03:58:47;22.70;99.90
2024;DHT22;1016;48.770;9.154;2023-09-18T04:01:15;22.70;99.90
2024;DHT22;1016;48.770;9.154;2023-09-18T04:03:41;22.90;99.90
2024;DHT22;1016;48.770;9.154;2023-09-18T04:06:06;22.70;99.90
2024;DHT22;1016;48.770;9.154;2023-09-18T04:08:32;22.70;99.90
2024;DHT22;1016;48.770;9.154;2023-09-18T04:10:58;22.70;99.90
2024;DHT22;1016;48.770;9.154;2023-09-18T04:13:24;22.70;99.90
2024;DHT22;1016;48.770;9.154;2023-09-18T04:15:50;22.60;99.90
2024;DHT22;1016;48.770;9.154;2023-09-18T04:18:15;22.70;99.90
2024;DHT22;1016;48.770;9.154;2023-09-18T04:20:41;22.70;99.90
2024;DHT22;1016;48.770;9.154;2023-09-18T04:23:26;22.60;99.90
2024;DHT22;1016;48.770;9.154;2023-09-18T04:25:53;22.60;99.90
2024;DHT22;1016;48.770;9.154;2023-09-18T04:28:21;22.70;99.90
2024;DHT22;1016;48.770;9.154;2023-09-18T04:30:47;22.70;99.90
2024;DHT22;1016;48.770;9.154;2023-09-18T04:33:16;22.80;99.90
2024;DHT22;1016;48.770;9.154;2023-09-18T04:35:43;22.90;99.90
2024;DHT22;1016;48.770;9.154;2023-09-18T04:38:09;22.80;99.90
2024;DHT22;1016;48.770;9.154;2023-09-18T04:40:36;22.70;99.90
2024;DHT22;1016;48.770;9.154;2023-09-18T04:43:02;22.70;99.90
2024;DHT22;1016;48.770;9.154;2023-09-18T04:45:31;22.70;99.90
2024;DHT22;1016;48.770;9.154;2023-09-18T04:47:57;22.70;99.90
2024;DHT22;1016;48.770;9.154;2023-09-18T04:50:23;22.50;99.90
2024;DHT22;1016;48.770;9.154;2023-09-18T04:52:48;22.70;99.90
2024;DHT22;1016;48.770;9.154;2023-09-18T04:55:16;22.70;99.90
2024;DHT22;1016;48.770;9.154;2023-09-18T04:57:43;22.70;99.90
2024;DHT22;1016;48.770;9.154;2023-09-18T05:00:09;22.70;99.90
2024;DHT22;1016;48.770;9.154;2023-09-18T05:02:38;22.70;99.90
2024;DHT22;1016;48.770;9.154;2023-09-18T05:05:04;22.70;99.90
2024;DHT22;1016;48.770;9.154;2023-09-18T05:07:30;22.70;99.90
2024;DHT22;1016;48.770;9.154;2023-09-18T05:09:55;22.70;99.90
2024;DHT22;1016;48.770;9.154;2023-09-18T05:12:21;22.80;99.90
2024;DHT22;1016;48.770;9.154;2023-09-18T05:14:47;22.70;99.90
2024;DHT22;1016;48.770;9.154;2023-09-18T05:17:15;22.70;99.90
2024;DHT22;1016;48.770;9.154;2023-09-18T05:19:43;22.70;99.90
2024;DHT22;1016;48.770;9.154;2023-09-18T05:22:09;22.70;99.90
2024;DHT22;1016;48.770;9.154;2023-09-18T05:24:38;22.60;99.90
2024;DHT22;1016;48.770;9.154;2023-09-18T05:27:04;22.60;99.90
2024;DHT22;1016;48.770;9.154;2023-09-18T05:29:36;22.60;99.90
2024;DHT22;1016;48.770;9.154;2023-09-18T05:32:02;22.60;99.90
2024;DHT22;1016;48.770;9.154;2023-09-18T05:34:29;22.60;99.90
2024;DHT22;1016;48.770;9.154;2023-09-18T05:36:55;22.60;99.90
2024;DHT22;1016;48.770;9.154;2023-09-18T05:39:20;22.60;99.90
2024;DHT22;1016;48.770;9.154;2023-09-18T05:41:46;22.60;99.90
2024;DHT22;1016;48.770;9.154;2023-09-18T05:44:11;22.60;99.90
2024;DHT22;1016;48.770;9.154;2023-09-18T05:46:37;22.60;99.90
2024;DHT22;1016;48.770;9.154;2023-09-18T05:49:03;22.60;99.90
2024;DHT22;1016;48.770;9.154;2023-09-18T05:51:30;22.70;99.90
2024;DHT22;1016;48.770;9.154;2023-09-18T05:53:56;22.70;99.90
2024;DHT22;1016;48.770;9.154;2023-09-18T05:56:22;22.60;99.90
2024;DHT22;1016;48.770;9.154;2023-09-18T05:58:49;22.70;99.90
2024;DHT22;1016;48.770;9.154;2023-09-18T06:01:14;22.70;99.90
2024;DHT22;1016;48.770;9.154;2023-09-18T06:03:40;22.60;99.90
2024;DHT22;1016;48.770;9.154;2023-09-18T06:06:06;22.70;99.90
2024;DHT22;1016;48.770;9.154;2023-09-18T06:08:31;22.60;99.90
2024;DHT22;1016;48.770;9.154;2023-09-18T06:10:58;22.60;99.90
2024;DHT22;1016;48.770;9.154;2023-09-18T06:13:24;22.60;99.90
2024;DHT22;1016;48.770;9.154;2023-09-18T06:15:53;22.60;99.90
2024;DHT22;1016;48.770;9.154;2023-09-18T06:18:22;22.70;99.90
2024;DHT22;1016;48.770;9.154;2023-09-18T06:20:49;22.60;99.90
2024;DHT22;1016;48.770;9.154;2023-09-18T06:26:46;22.50;99.90
2024;DHT22;1016;48.770;9.154;2023-09-18T06:29:12;22.50;99.90
2024;DHT22;1016;48.770;9.154;2023-09-18T06:31:38;22.70;99.90
2024;DHT22;1016;48.770;9.154;2023-09-18T06:34:04;22.50;99.90
2024;DHT22;1016;48.770;9.154;2023-09-18T06:36:30;22.50;99.90
2024;DHT22;1016;48.770;9.154;2023-09-18T06:38:56;22.50;99.90
2024;DHT22;1016;48.770;9.154;2023-09-18T06:41:21;22.50;99.90
2024;DHT22;1016;48.770;9.154;2023-09-18T06:43:47;22.50;99.90
2024;DHT22;1016;48.770;9.154;2023-09-18T06:46:12;22.60;99.90
2024;DHT22;1016;48.770;9.154;2023-09-18T06:54:45;22.50;99.90
2024;DHT22;1016;48.770;9.154;2023-09-18T06:57:10;22.50;99.90
2024;DHT22;1016;48.770;9.154;2023-09-18T06:59:36;22.50;99.90
2024;DHT22;1016;48.770;9.154;2023-09-18T07:02:02;22.50;99.90
2024;DHT22;1016;48.770;9.154;2023-09-18T07:04:29;22.50;99.90
2024;DHT22;1016;48.770;9.154;2023-09-18T07:06:55;22.60;99.90
2024;DHT22;1016;48.770;9.154;2023-09-18T07:09:22;22.30;99.90
2024;DHT22;1016;48.770;9.154;2023-09-18T07:11:50;22.50;99.90
2024;DHT22;1016;48.770;9.154;2023-09-18T07:14:16;22.50;99.90
2024;DHT22;1016;48.770;9.154;2023-09-18T07:16:44;22.50;99.90
2024;DHT22;1016;48.770;9.154;2023-09-18T07:19:09;22.50;99.90
2024;DHT22;1016;48.770;9.154;2023-09-18T07:21:37;22.60;99.90
2024;DHT22;1016;48.770;9.154;2023-09-18T07:24:04;22.60;99.90
2024;DHT22;1016;48.770;9.154;2023-09-18T07:26:30;22.50;99.90
2024;DHT22;1016;48.770;9.154;2023-09-18T07:28:55;22.40;99.90
2024;DHT22;1016;48.770;9.154;2023-09-18T07:31:25;22.40;99.90
2024;DHT22;1016;48.770;9.154;2023-09-18T07:33:50;22.60;99.90
2024;DHT22;1016;48.770;9.154;2023-09-18T07:36:19;22.60;99.90
2024;DHT22;1016;48.770;9.154;2023-09-18T07:38:45;22.50;99.90
2024;DHT22;1016;48.770;9.154;2023-09-18T07:41:11;22.50;99.90
2024;DHT22;1016;48.770;9.154;2023-09-18T07:43:37;22.50;99.90
2024;DHT22;1016;48.770;9.154;2023-09-18T07:46:04;22.40;99.90
2024;DHT22;1016;48.770;9.154;2023-09-18T07:48:30;22.50;99.90
2024;DHT22;1016;48.770;9.154;2023-09-18T07:50:55;22.60;99.90
2024;DHT22;1016;48.770;9.154;2023-09-18T07:53:21;22.50;99.90
2024;DHT22;1016;48.770;9.154;2023-09-18T07:55:55;22.60;99.90
2024;DHT22;1016;48.770;9.154;2023-09-18T07:58:24;22.50;99.90
2024;DHT22;1016;48.770;9.154;2023-09-18T08:00:54;22.40;99.90
2024;DHT22;1016;48.770;9.154;2023-09-18T08:03:23;22.50;99.90
2024;DHT22;1016;48.770;9.154;2023-09-18T08:05:52;22.50;99.90
2024;DHT22;1016;48.770;9.154;2023-09-18T08:08:19;22.50;99.90
2024;DHT22;1016;48.770;9.154;2023-09-18T08:10:49;22.60;99.90
2024;DHT22;1016;48.770;9.154;2023-09-18T08:13:16;22.50;99.90
2024;DHT22;1016;48.770;9.154;2023-09-18T08:15:42;22.60;99.90
2024;DHT22;1016;48.770;9.154;2023-09-18T08:18:07;22.60;99.90
2024;DHT22;1016;48.770;9.154;2023-09-18T08:20:33;22.60;99.90
2024;DHT22;1016;48.770;9.154;2023-09-18T08:22:59;22.50;99.90
2024;DHT22;1016;48.770;9.154;2023-09-18T08:25:29;22.70;99.90
2024;DHT22;1016;48.770;9.154;2023-09-18T08:27:55;22.50;99.90
2024;DHT22;1016;48.770;9.154;2023-09-18T08:30:20;22.50;99.90
2024;DHT22;1016;48.770;9.154;2023-09-18T08:32:49;22.50;99.90
2024;DHT22;1016;48.770;9.154;2023-09-18T08:35:15;22.60;99.90
2024;DHT22;1016;48.770;9.154;2023-09-18T08:37:41;22.50;99.90
2024;DHT22;1016;48.770;9.154;2023-09-18T08:40:11;22.50;99.90
2024;DHT22;1016;48.770;9.154;2023-09-18T08:46:01;22.50;99.90
2024;DHT22;1016;48.770;9.154;2023-09-18T08:48:29;22.50;99.90
2024;DHT22;1016;48.770;9.154;2023-09-18T08:51:04;22.50;99.90
2024;DHT22;1016;48.770;9.154;2023-09-18T08:53:35;22.50;99.90
2024;DHT22;1016;48.770;9.154;2023-09-18T08:56:01;22.60;99.90
2024;DHT22;1016;48.770;9.154;2023-09-18T08:58:29;22.60;99.90
2024;DHT22;1016;48.770;9.154;2023-09-18T09:00:57;22.60;99.90
2024;DHT22;1016;48.770;9.154;2023-09-18T09:03:23;22.50;99.90
2024;DHT22;1016;48.770;9.154;2023-09-18T09:05:49;22.50;99.90
2024;DHT22;1016;48.770;9.154;2023-09-18T09:08:16;22.60;99.90
2024;DHT22;1016;48.770;9.154;2023-09-18T09:10:42;22.50;99.90
2024;DHT22;1016;48.770;9.154;2023-09-18T09:13:08;22.40;99.90
2024;DHT22;1016;48.770;9.154;2023-09-18T09:16:02;22.40;99.90
2024;DHT22;1016;48.770;9.154;2023-09-18T09:18:29;22.40;99.90
2024;DHT22;1016;48.770;9.154;2023-09-18T09:20:59;22.50;99.90
2024;DHT22;1016;48.770;9.154;2023-09-18T09:23:45;22.30;99.90
2024;DHT22;1016;48.770;9.154;2023-09-18T09:26:15;22.40;99.90
2024;DHT22;1016;48.770;9.154;2023-09-18T09:28:43;22.40;99.90
2024;DHT22;1016;48.770;9.154;2023-09-18T09:31:09;22.40;99.90
2024;DHT22;1016;48.770;9.154;2023-09-18T09:34:08;22.30;99.90
2024;DHT22;1016;48.770;9.154;2023-09-18T09:36:58;22.40;99.90
2024;DHT22;1016;48.770;9.154;2023-09-18T09:39:26;22.50;99.90
2024;DHT22;1016;48.770;9.154;2023-09-18T09:41:52;22.40;99.90
2024;DHT22;1016;48.770;9.154;2023-09-18T09:44:18;22.50;99.90
2024;DHT22;1016;48.770;9.154;2023-09-18T09:46:47;22.40;99.90
2024;DHT22;1016;48.770;9.154;2023-09-18T09:49:13;22.40;99.90
2024;DHT22;1016;48.770;9.154;2023-09-18T09:51:41;22.30;99.90
2024;DHT22;1016;48.770;9.154;2023-09-18T09:54:12;22.40;99.90
2024;DHT22;1016;48.770;9.154;2023-09-18T09:56:49;22.40;99.90
2024;DHT22;1016;48.770;9.154;2023-09-18T09:59:18;22.40;99.90
2024;DHT22;1016;48.770;9.154;2023-09-18T10:01:48;22.30;99.90
2024;DHT22;1016;48.770;9.154;2023-09-18T10:04:17;22.50;99.90
2024;DHT22;1016;48.770;9.154;2023-09-18T10:07:03;22.40;99.90
2024;DHT22;1016;48.770;9.154;2023-09-18T10:09:34;22.30;99.90
2024;DHT22;1016;48.770;9.154;2023-09-18T10:12:02;22.30;99.90
2024;DHT22;1016;48.770;9.154;2023-09-18T10:14:32;22.30;99.90
2024;DHT22;1016;48.770;9.154;2023-09-18T10:17:15;22.30;99.90
2024;DHT22;1016;48.770;9.154;2023-09-18T10:22:44;22.30;99.90
2024;DHT22;1016;48.770;9.154;2023-09-18T10:25:20;22.40;99.90
2024;DHT22;1016;48.770;9.154;2023-09-18T10:27:51;22.20;99.90
2024;DHT22;1016;48.770;9.154;2023-09-18T10:30:24;22.10;99.90
2024;DHT22;1016;48.770;9.154;2023-09-18T10:32:53;22.30;99.90
2024;DHT22;1016;48.770;9.154;2023-09-18T10:35:23;22.40;99.90
2024;DHT22;1016;48.770;9.154;2023-09-18T10:37:54;22.30;99.90
2024;DHT22;1016;48.770;9.154;2023-09-18T10:40:20;22.30;99.90
2024;DHT22;1016;48.770;9.154;2023-09-18T10:42:48;22.30;99.90
2024;DHT22;1016;48.770;9.154;2023-09-18T10:45:15;22.50;99.90
2024;DHT22;1016;48.770;9.154;2023-09-18T10:47:43;22.50;99.90
2024;DHT22;1016;48.770;9.154;2023-09-18T10:50:23;22.40;99.90
2024;DHT22;1016;48.770;9.154;2023-09-18T10:52:50;22.40;99.90
2024;DHT22;1016;48.770;9.154;2023-09-18T10:55:18;22.20;99.90
2024;DHT22;1016;48.770;9.154;2023-09-18T10:57:55;22.30;99.90
2024;DHT22;1016;48.770;9.154;2023-09-18T11:00:25;22.40;99.90
2024;DHT22;1016;48.770;9.154;2023-09-18T11:03:16;22.40;99.90
2024;DHT22;1016;48.770;9.154;2023-09-18T11:05:49;22.10;99.90
2024;DHT22;1016;48.770;9.154;2023-09-18T11:08:34;22.30;99.90
2024;DHT22;1016;48.770;9.154;2023-09-18T11:11:07;22.40;99.90
2024;DHT22;1016;48.770;9.154;2023-09-18T11:13:53;22.30;99.90
2024;DHT22;1016;48.770;9.154;2023-09-18T11:16:38;22.30;99.90
2024;DHT22;1016;48.770;9.154;2023-09-18T11:19:09;22.30;99.90
2024;DHT22;1016;48.770;9.154;2023-09-18T11:21:36;22.20;99.90
2024;DHT22;1016;48.770;9.154;2023-09-18T11:26:37;22.40;99.90
2024;DHT22;1016;48.770;9.154;2023-09-18T11:29:07;22.10;99.90
2024;DHT22;1016;48.770;9.154;2023-09-18T11:31:53;22.30;99.90
2024;DHT22;1016;48.770;9.154;2023-09-18T11:34:22;22.30;99.90
2024;DHT22;1016;48.770;9.154;2023-09-18T11:36:48;22.20;99.90
2024;DHT22;1016;48.770;9.154;2023-09-18T11:39:36;22.30;99.90
2024;DHT22;1016;48.770;9.154;2023-09-18T11:42:21;22.20;99.90
2024;DHT22;1016;48.770;9.154;2023-09-18T11:44:52;22.20;99.90
2024;DHT22;1016;48.770;9.154;2023-09-18T11:47:20;22.30;99.90
2024;DHT22;1016;48.770;9.154;2023-09-18T11:49:59;22.20;99.90
2024;DHT22;1016;48.770;9.154;2023-09-18T11:52:28;22.20;99.90
2024;DHT22;1016;48.770;9.154;2023-09-18T11:54:58;22.20;99.90
2024;DHT22;1016;48.770;9.154;2023-09-18T11:57:24;22.20;99.90
2024;DHT22;1016;48.770;9.154;2023-09-18T11:59:50;22.20;99.90
2024;DHT22;1016;48.770;9.154;2023-09-18T12:02:29;22.20;99.90
2024;DHT22;1016;48.770;9.154;2023-09-18T12:05:14;22.20;99.90
2024;DHT22;1016;48.770;9.154;2023-09-18T12:07:41;22.30;99.90
2024;DHT22;1016;48.770;9.154;2023-09-18T12:10:15;22.20;99.90
2024;DHT22;1016;48.770;9.154;2023-09-18T12:12:42;22.10;99.90
2024;DHT22;1016;48.770;9.154;2023-09-18T12:15:17;22.30;99.90
2024;DHT22;1016;48.770;9.154;2023-09-18T12:17:47;22.10;99.90
2024;DHT22;1016;48.770;9.154;2023-09-18T12:20:17;22.20;99.90
2024;DHT22;1016;48.770;9.154;2023-09-18T12:22:50;22.30;99.90
2024;DHT22;1016;48.770;9.154;2023-09-18T12:25:16;22.30;99.90
2024;DHT22;1016;48.770;9.154;2023-09-18T12:27:45;22.20;99.90
2024;DHT22;1016;48.770;9.154;2023-09-18T12:30:12;22.30;99.90
2024;DHT22;1016;48.770;9.154;2023-09-18T12:32:50;22.20;99.90
2024;DHT22;1016;48.770;9.154;2023-09-18T12:35:19;22.00;99.90
2024;DHT22;1016;48.770;9.154;2023-09-18T12:37:45;22.20;99.90
2024;DHT22;1016;48.770;9.154;2023-09-18T12:40:26;22.10;99.90
2024;DHT22;1016;48.770;9.154;2023-09-18T12:42:57;22.10;99.90
2024;DHT22;1016;48.770;9.154;2023-09-18T12:45:27;22.10;99.90
2024;DHT22;1016;48.770;9.154;2023-09-18T12:47:55;22.30;99.90
2024;DHT22;1016;48.770;9.154;2023-09-18T12:50:21;22.30;99.90
2024;DHT22;1016;48.770;9.154;2023-09-18T12:52:47;22.00;99.90
2024;DHT22;1016;48.770;9.154;2023-09-18T12:55:24;22.20;99.90
2024;DHT22;1016;48.770;9.154;2023-09-18T12:57:51;22.20;99.90
2024;DHT22;1016;48.770;9.154;2023-09-18T13:00:21;22.30;99.90
2024;DHT22;1016;48.770;9.154;2023-09-18T13:02:52;22.30;99.90
2024;DHT22;1016;48.770;9.154;2023-09-18T13:05:26;22.20;99.90
2024;DHT22;1016;48.770;9.154;2023-09-18T13:08:05;22.30;99.90
2024;DHT22;1016;48.770;9.154;2023-09-18T13:10:44;22.40;99.90
2024;DHT22;1016;48.770;9.154;2023-09-18T13:13:19;22.30;99.90
2024;DHT22;1016;48.770;9.154;2023-09-18T13:15:47;22.40;99.90
2024;DHT22;1016;48.770;9.154;2023-09-18T13:18:15;22.10;99.90
2024;DHT22;1016;48.770;9.154;2023-09-18T13:20:42;22.30;99.90
2024;DHT22;1016;48.770;9.154;2023-09-18T13:23:11;22.40;99.90
2024;DHT22;1016;48.770;9.154;2023-09-18T13:25:40;22.30;99.90
2024;DHT22;1016;48.770;9.154;2023-09-18T13:28:10;22.30;99.90
2024;DHT22;1016;48.770;9.154;2023-09-18T13:30:37;22.40;99.90
2024;DHT22;1016;48.770;9.154;2023-09-18T13:33:16;22.40;99.90
2024;DHT22;1016;48.770;9.154;2023-09-18T13:35:48;22.30;99.90
2024;DHT22;1016;48.770;9.154;2023-09-18T13:38:14;22.40;99.90
2024;DHT22;1016;48.770;9.154;2023-09-18T13:40:43;22.40;99.90
2024;DHT22;1016;48.770;9.154;2023-09-18T13:43:14;22.40;99.90
2024;DHT22;1016;48.770;9.154;2023-09-18T13:45:49;22.50;99.90
2024;DHT22;1016;48.770;9.154;2023-09-18T13:48:18;22.30;99.90
2024;DHT22;1016;48.770;9.154;2023-09-18T13:50:44;22.40;99.90
2024;DHT22;1016;48.770;9.154;2023-09-18T13:53:18;22.40;99.90
2024;DHT22;1016;48.770;9.154;2023-09-18T13:55:43;22.40;99.90
2024;DHT22;1016;48.770;9.154;2023-09-18T13:58:09;22.40;99.90
2024;DHT22;1016;48.770;9.154;2023-09-18T14:00:39;22.60;99.90
2024;DHT22;1016;48.770;9.154;2023-09-18T14:03:05;22.50;99.90
2024;DHT22;1016;48.770;9.154;2023-09-18T14:05:33;22.50;99.90
2024;DHT22;1016;48.770;9.154;2023-09-18T14:08:02;22.50;99.90
2024;DHT22;1016;48.770;9.154;2023-09-18T14:10:35;22.50;99.90
2024;DHT22;1016;48.770;9.154;2023-09-18T14:13:08;22.50;99.90
2024;DHT22;1016;48.770;9.154;2023-09-18T14:15:35;22.60;99.90
2024;DHT22;1016;48.770;9.154;2023-09-18T14:18:05;22.50;99.90
2024;DHT22;1016;48.770;9.154;2023-09-18T14:20:33;22.70;99.90
2024;DHT22;1016;48.770;9.154;2023-09-18T14:23:01;22.40;99.90
2024;DHT22;1016;48.770;9.154;2023-09-18T14:25:29;22.60;99.90
2024;DHT22;1016;48.770;9.154;2023-09-18T14:28:08;22.60;99.90
2024;DHT22;1016;48.770;9.154;2023-09-18T14:30:36;22.60;99.90
2024;DHT22;1016;48.770;9.154;2023-09-18T14:33:06;22.70;99.90
2024;DHT22;1016;48.770;9.154;2023-09-18T14:35:58;22.60;99.90
2024;DHT22;1016;48.770;9.154;2023-09-18T14:38:24;22.70;99.90
2024;DHT22;1016;48.770;9.154;2023-09-18T14:41:02;22.70;99.90
2024;DHT22;1016;48.770;9.154;2023-09-18T14:43:40;22.60;99.90
2024;DHT22;1016;48.770;9.154;2023-09-18T14:46:05;22.60;99.90
2024;DHT22;1016;48.770;9.154;2023-09-18T14:48:35;22.50;99.90
2024;DHT22;1016;48.770;9.154;2023-09-18T14:51:01;22.70;99.90
2024;DHT22;1016;48.770;9.154;2023-09-18T14:53:31;22.60;99.90
2024;DHT22;1016;48.770;9.154;2023-09-18T14:55:59;22.60;99.90
2024;DHT22;1016;48.770;9.154;2023-09-18T14:58:25;22.60;99.90
2024;DHT22;1016;48.770;9.154;2023-09-18T15:00:50;22.80;99.90
2024;DHT22;1016;48.770;9.154;2023-09-18T15:03:16;22.70;99.90
2024;DHT22;1016;48.770;9.154;2023-09-18T15:05:44;22.80;99.90
2024;DHT22;1016;48.770;9.154;2023-09-18T15:08:12;22.60;99.90
2024;DHT22;1016;48.770;9.154;2023-09-18T15:10:40;22.80;99.90
2024;DHT22;1016;48.770;9.154;2023-09-18T15:13:06;22.70;99.90
2024;DHT22;1016;48.770;9.154;2023-09-18T15:15:32;22.70;99.90
2024;DHT22;1016;48.770;9.154;2023-09-18T15:17:57;22.60;99.90
2024;DHT22;1016;48.770;9.154;2023-09-18T15:20:23;22.70;99.90
2024;DHT22;1016;48.770;9.154;2023-09-18T15:22:51;22.70;99.90
2024;DHT22;1016;48.770;9.154;2023-09-18T15:25:27;22.70;99.90
2024;DHT22;1016;48.770;9.154;2023-09-18T15:27:53;22.70;99.90
2024;DHT22;1016;48.770;9.154;2023-09-18T15:30:20;22.60;99.90
2024;DHT22;1016;48.770;9.154;2023-09-18T15:33:08;22.70;99.90
2024;DHT22;1016;48.770;9.154;2023-09-18T15:35:34;22.80;99.90
2024;DHT22;1016;48.770;9.154;2023-09-18T15:38:00;22.80;99.90
2024;DHT22;1016;48.770;9.154;2023-09-18T15:40:26;22.70;99.90
2024;DHT22;1016;48.770;9.154;2023-09-18T15:43:04;22.80;99.90
2024;DHT22;1016;48.770;9.154;2023-09-18T15:45:30;22.70;99.90
2024;DHT22;1016;48.770;9.154;2023-09-18T15:47:56;22.60;99.90
2024;DHT22;1016;48.770;9.154;2023-09-18T15:50:23;22.80;99.90
2024;DHT22;1016;48.770;9.154;2023-09-18T15:52:52;22.70;99.90
2024;DHT22;1016;48.770;9.154;2023-09-18T15:55:17;22.70;99.90
2024;DHT22;1016;48.770;9.154;2023-09-18T15:57:43;22.70;99.90
2024;DHT22;1016;48.770;9.154;2023-09-18T16:00:10;22.60;99.90
2024;DHT22;1016;48.770;9.154;2023-09-18T16:02:38;22.70;99.90
2024;DHT22;1016;48.770;9.154;2023-09-18T16:05:05;22.80;99.90
2024;DHT22;1016;48.770;9.154;2023-09-18T16:07:35;22.70;99.90
2024;DHT22;1016;48.770;9.154;2023-09-18T16:10:02;22.70;99.90
2024;DHT22;1016;48.770;9.154;2023-09-18T16:12:30;22.50;99.90
2024;DHT22;1016;48.770;9.154;2023-09-18T16:14:55;22.70;99.90
2024;DHT22;1016;48.770;9.154;2023-09-18T16:17:21;22.80;99.90
2024;DHT22;1016;48.770;9.154;2023-09-18T16:19:47;22.70;99.90
2024;DHT22;1016;48.770;9.154;2023-09-18T16:22:12;22.70;99.90
2024;DHT22;1016;48.770;9.154;2023-09-18T16:24:41;22.60;99.90
2024;DHT22;1016;48.770;9.154;2023-09-18T16:27:10;22.80;99.90
2024;DHT22;1016;48.770;9.154;2023-09-18T16:29:37;22.70;99.90
2024;DHT22;1016;48.770;9.154;2023-09-18T16:32:04;22.70;99.90